createdAt,value
2023-04-27T00:01:49.775Z,96259.19
2023-04-27T00:04:18.158Z,96260.23
2023-04-27T00:06:46.494Z,96262.68
2023-04-27T00:09:14.699Z,96258.19
2023-04-27T00:11:42.917Z,96261.94
2023-04-27T00:14:11.008Z,96259.36
2023-04-27T00:16:39.046Z,96258.86
2023-04-27T00:19:09.030Z,96259.61
2023-04-27T00:21:36.972Z,96256.05
2023-04-27T00:24:06.105Z,96252.18
2023-04-27T00:26:34.149Z,96251.86
2023-04-27T00:29:02.060Z,96252.72
2023-04-27T00:31:30.046Z,96254.77
2023-04-27T00:33:58.080Z,96248.92
2023-04-27T00:36:27.124Z,96252.23
2023-04-27T00:38:55.084Z,96251.87
2023-04-27T00:41:23.120Z,96250.68
2023-04-27T00:43:51.222Z,96251.98
2023-04-27T00:46:19.969Z,96252.27
2023-04-27T00:48:48.407Z,96254.27
2023-04-27T00:51:16.935Z,96251.93
2023-04-27T00:53:44.958Z,96253.07
2023-04-27T00:56:13.133Z,96250.98
2023-04-27T00:58:41.120Z,96250.82
2023-04-27T01:01:10.353Z,96254.88
2023-04-27T01:03:38.559Z,96254.67
2023-04-27T01:06:07.633Z,96256.39
2023-04-27T01:08:36.834Z,96254.69
2023-04-27T01:11:05.075Z,96256.61
2023-04-27T01:13:32.972Z,96258.65
2023-04-27T01:16:02.635Z,96262.57
2023-04-27T01:18:31.943Z,96263.45
2023-04-27T01:21:00.531Z,96268.09
2023-04-27T01:23:28.625Z,96264.80
2023-04-27T01:25:56.720Z,96265.53
2023-04-27T01:28:24.635Z,96267.27
2023-04-27T01:30:52.646Z,96268.80
2023-04-27T01:33:21.073Z,96267.88
2023-04-27T01:35:49.621Z,96267.92
2023-04-27T01:38:18.115Z,96266.80
2023-04-27T01:40:46.076Z,96266.98
2023-04-27T01:43:14.559Z,96264.59
2023-04-27T01:45:42.476Z,96266.73
2023-04-27T01:48:11.766Z,96269.21
2023-04-27T01:50:39.675Z,96273.04
2023-04-27T01:53:07.787Z,96269.29
2023-04-27T01:55:35.860Z,96269.15
2023-04-27T01:58:03.841Z,96271.20
2023-04-27T02:00:33.082Z,96268.74
2023-04-27T02:03:01.404Z,96275.00
2023-04-27T02:05:29.637Z,96270.85
2023-04-27T02:07:57.534Z,96278.32
2023-04-27T02:10:25.699Z,96280.22
2023-04-27T02:12:57.251Z,96278.48
2023-04-27T02:15:25.287Z,96279.02
2023-04-27T02:17:53.262Z,96279.03
2023-04-27T02:20:21.280Z,96276.10
2023-04-27T02:22:49.200Z,96275.83
2023-04-27T02:25:17.233Z,96274.41
2023-04-27T02:27:45.248Z,96275.45
2023-04-27T02:30:15.475Z,96272.46
2023-04-27T02:32:44.254Z,96273.79
2023-04-27T02:35:12.404Z,96275.58
2023-04-27T02:37:40.330Z,96276.48
2023-04-27T02:40:09.426Z,96276.64
2023-04-27T02:42:39.141Z,96275.54
2023-04-27T02:45:08.268Z,96274.57
2023-04-27T02:47:37.778Z,96274.08
2023-04-27T02:50:06.147Z,96273.31
2023-04-27T02:52:35.563Z,96272.31
2023-04-27T02:55:03.682Z,96272.38
2023-04-27T02:57:31.818Z,96274.12
2023-04-27T02:59:59.811Z,96273.79
2023-04-27T03:02:27.815Z,96274.33
2023-04-27T03:04:56.158Z,96275.16
2023-04-27T03:07:25.321Z,96274.19
2023-04-27T03:09:53.220Z,96277.91
2023-04-27T03:12:21.098Z,96282.18
2023-04-27T03:14:49.028Z,96284.09
2023-04-27T03:17:16.887Z,96288.27
2023-04-27T03:19:47.038Z,96286.02
2023-04-27T03:22:15.005Z,96285.92
2023-04-27T03:24:43.378Z,96290.41
2023-04-27T03:27:11.981Z,96291.17
2023-04-27T03:29:39.893Z,96291.89
2023-04-27T03:32:08.212Z,96294.23
2023-04-27T03:34:37.068Z,96297.73
2023-04-27T03:37:05.051Z,96298.73
2023-04-27T03:39:33.039Z,96302.88
2023-04-27T03:42:01.532Z,96304.33
2023-04-27T03:44:31.656Z,96305.50
2023-04-27T03:47:00.659Z,96308.95
2023-04-27T03:49:28.904Z,96309.86
2023-04-27T03:51:57.255Z,96310.36
2023-04-27T03:54:25.129Z,96312.27
2023-04-27T03:56:53.032Z,96315.23
2023-04-27T03:59:21.586Z,96316.70
2023-04-27T04:01:51.857Z,96312.42
2023-04-27T04:04:21.648Z,96318.80
2023-04-27T04:06:49.733Z,96323.30
2023-04-27T04:09:18.126Z,96323.59
2023-04-27T04:11:46.071Z,96323.20
2023-04-27T04:14:15.488Z,96327.17
2023-04-27T04:16:43.374Z,96328.04
2023-04-27T04:19:11.482Z,96331.67
2023-04-27T04:21:39.509Z,96327.77
2023-04-27T04:24:07.627Z,96329.50
2023-04-27T04:26:35.571Z,96328.29
2023-04-27T04:29:03.821Z,96328.06
2023-04-27T04:31:33.815Z,96329.94
2023-04-27T04:34:02.486Z,96334.27
2023-04-27T04:36:32.022Z,96331.73
2023-04-27T04:39:00.662Z,96334.75
2023-04-27T04:41:28.558Z,96332.66
2023-04-27T04:43:56.503Z,96335.55
2023-04-27T04:46:25.181Z,96339.36
2023-04-27T04:48:54.880Z,96336.02
2023-04-27T04:51:23.014Z,96337.91
2023-04-27T04:53:51.190Z,96342.00
2023-04-27T04:56:19.130Z,96342.25
2023-04-27T04:58:47.051Z,96342.59
2023-04-27T05:01:15.001Z,96347.39
2023-04-27T05:03:43.073Z,96347.85
2023-04-27T05:06:11.262Z,96348.59
2023-04-27T05:08:39.151Z,96356.41
2023-04-27T05:11:07.554Z,96351.48
2023-04-27T05:13:35.844Z,96356.02
2023-04-27T05:16:08.311Z,96354.25
2023-04-27T05:18:36.401Z,96357.90
2023-04-27T05:21:04.370Z,96358.71
2023-04-27T05:23:32.262Z,96361.95
2023-04-27T05:26:00.416Z,96362.78
2023-04-27T05:28:28.324Z,96362.95
2023-04-27T05:30:56.436Z,96364.35
2023-04-27T05:33:24.317Z,96362.75
2023-04-27T05:35:52.351Z,96362.45
2023-04-27T05:38:20.436Z,96365.20
2023-04-27T05:40:57.463Z,96363.61
2023-04-27T05:43:26.313Z,96366.89
2023-04-27T05:45:54.336Z,96369.98
2023-04-27T05:48:22.291Z,96367.52
2023-04-27T05:50:59.857Z,96369.69
2023-04-27T05:53:27.863Z,96370.52
2023-04-27T05:55:59.292Z,96372.17
2023-04-27T05:58:30.495Z,96375.48
2023-04-27T06:00:58.958Z,96374.55
2023-04-27T06:03:27.369Z,96376.26
2023-04-27T06:05:58.772Z,96373.02
2023-04-27T06:08:28.028Z,96378.14
2023-04-27T06:10:56.070Z,96376.36
2023-04-27T06:13:24.136Z,96373.76
2023-04-27T06:15:52.203Z,96375.80
2023-04-27T06:18:20.235Z,96374.85
2023-04-27T06:20:48.248Z,96377.70
2023-04-27T06:23:16.316Z,96380.36
2023-04-27T06:25:44.450Z,96377.00
2023-04-27T06:28:12.405Z,96377.58
2023-04-27T06:30:40.336Z,96381.80
2023-04-27T06:33:09.176Z,96379.73
2023-04-27T06:35:37.206Z,96384.98
2023-04-27T06:38:07.559Z,96384.30
2023-04-27T06:40:37.170Z,96387.97
2023-04-27T06:43:05.059Z,96386.96
2023-04-27T06:45:33.034Z,96387.23
2023-04-27T06:48:00.988Z,96390.80
2023-04-27T06:50:29.547Z,96391.52
2023-04-27T06:52:57.674Z,96394.33
2023-04-27T06:55:25.742Z,96390.05
2023-04-27T06:57:53.665Z,96392.67
2023-04-27T07:00:21.951Z,96389.00
2023-04-27T07:02:49.947Z,96388.34
2023-04-27T07:05:17.989Z,96391.49
2023-04-27T07:07:47.008Z,96394.12
2023-04-27T07:10:14.921Z,96397.00
2023-04-27T07:12:42.948Z,96400.45
2023-04-27T07:15:11.517Z,96399.40
2023-04-27T07:17:39.456Z,96397.52
2023-04-27T07:20:08.790Z,96395.95
2023-04-27T07:22:36.782Z,96395.62
2023-04-27T07:25:05.685Z,96395.80
2023-04-27T07:27:35.724Z,96398.23
2023-04-27T07:30:04.777Z,96404.14
2023-04-27T07:32:32.819Z,96410.73
2023-04-27T07:35:00.915Z,96412.62
2023-04-27T07:37:28.967Z,96413.23
2023-04-27T07:39:57.734Z,96413.29
2023-04-27T07:42:25.701Z,96412.42
2023-04-27T07:44:54.283Z,96410.52
2023-04-27T07:47:22.206Z,96409.27
2023-04-27T07:49:50.214Z,96407.71
2023-04-27T07:52:18.180Z,96405.85
2023-04-27T07:54:46.057Z,96408.16
2023-04-27T07:57:14.028Z,96402.98
2023-04-27T07:59:42.037Z,96408.73
2023-04-27T08:02:18.562Z,96408.25
2023-04-27T08:04:48.611Z,96410.46
2023-04-27T08:07:18.089Z,96403.48
2023-04-27T08:09:46.185Z,96401.34
2023-04-27T08:12:14.243Z,96397.14
2023-04-27T08:14:42.672Z,96399.15
2023-04-27T08:17:11.412Z,96399.30
2023-04-27T08:19:40.789Z,96399.77
2023-04-27T08:22:08.836Z,96403.27
2023-04-27T08:24:37.472Z,96407.66
2023-04-27T08:27:09.623Z,96414.17
2023-04-27T08:29:37.686Z,96419.55
2023-04-27T08:32:05.886Z,96419.15
2023-04-27T08:34:33.862Z,96420.42
2023-04-27T08:37:03.344Z,96419.70
2023-04-27T08:39:31.259Z,96420.46
2023-04-27T08:41:59.175Z,96419.38
2023-04-27T08:44:27.119Z,96414.91
2023-04-27T08:46:55.045Z,96415.89
2023-04-27T08:49:23.415Z,96412.71
2023-04-27T08:51:51.503Z,96417.47
2023-04-27T08:54:20.897Z,96415.92
2023-04-27T08:56:48.837Z,96415.73
2023-04-27T08:59:18.027Z,96420.55
2023-04-27T09:01:50.010Z,96422.05
2023-04-27T09:04:18.715Z,96427.80
2023-04-27T09:06:46.836Z,96427.35
2023-04-27T09:09:25.478Z,96423.98
2023-04-27T09:11:53.488Z,96427.61
2023-04-27T09:14:24.236Z,96422.97
2023-04-27T09:16:57.666Z,96425.92
2023-04-27T09:19:27.299Z,96422.06
2023-04-27T09:22:11.396Z,96423.66
2023-04-27T09:24:51.360Z,96421.86
2023-04-27T09:27:21.809Z,96422.20
2023-04-27T09:29:49.679Z,96422.57
2023-04-27T09:32:19.800Z,96420.94
2023-04-27T09:34:47.701Z,96419.70
2023-04-27T09:37:16.001Z,96421.98
2023-04-27T09:39:44.700Z,96421.02
2023-04-27T09:42:13.404Z,96418.39
2023-04-27T09:44:41.426Z,96422.98
2023-04-27T09:47:10.748Z,96422.55
2023-04-27T09:49:38.956Z,96424.33
2023-04-27T09:52:07.229Z,96420.24
2023-04-27T09:54:36.507Z,96418.98
2023-04-27T09:57:46.779Z,96412.69
2023-04-27T10:00:33.451Z,96398.95
2023-04-27T10:03:16.866Z,96395.34
2023-04-27T10:05:57.358Z,96391.91
2023-04-27T10:08:25.654Z,96390.29
2023-04-27T10:10:53.752Z,96395.56
2023-04-27T10:13:24.040Z,96394.87
2023-04-27T10:15:52.736Z,96400.88
2023-04-27T10:18:29.486Z,96401.09
2023-04-27T10:21:09.772Z,96406.41
2023-04-27T10:23:47.387Z,96412.67
2023-04-27T10:26:26.583Z,96413.17
2023-04-27T10:29:08.805Z,96414.92
2023-04-27T10:31:44.207Z,96413.27
2023-04-27T10:34:18.522Z,96410.41
2023-04-27T10:36:48.668Z,96408.94
2023-04-27T10:39:19.162Z,96403.81
2023-04-27T10:41:51.947Z,96403.23
2023-04-27T10:44:58.187Z,96403.83
2023-04-27T10:47:36.638Z,96407.98
2023-04-27T10:50:05.175Z,96406.20
2023-04-27T10:52:31.825Z,96404.76
2023-04-27T10:55:04.706Z,96400.81
2023-04-27T10:57:31.306Z,96403.46
2023-04-27T10:59:57.985Z,96399.48
2023-04-27T11:02:26.679Z,96403.55
2023-04-27T11:04:55.136Z,96403.06
2023-04-27T11:07:27.051Z,96400.83
2023-04-27T11:09:54.166Z,96407.16
2023-04-27T11:12:21.076Z,96404.61
2023-04-27T11:14:47.708Z,96408.54
2023-04-27T11:17:14.271Z,96406.09
2023-04-27T11:19:46.867Z,96406.71
2023-04-27T11:22:17.417Z,96409.14
2023-04-27T11:24:49.796Z,96409.18
2023-04-27T11:27:17.333Z,96406.74
2023-04-27T11:29:44.242Z,96405.73
2023-04-27T11:32:22.029Z,96410.89
2023-04-27T11:34:54.305Z,96420.77
2023-04-27T11:37:23.689Z,96419.59
2023-04-27T11:39:51.388Z,96418.45
2023-04-27T11:42:19.208Z,96425.26
2023-04-27T11:44:57.421Z,96419.36
2023-04-27T11:47:26.858Z,96419.77
2023-04-27T11:50:01.024Z,96424.95
2023-04-27T11:52:32.495Z,96422.02
2023-04-27T11:55:00.671Z,96422.09
2023-04-27T11:57:32.173Z,96420.61
2023-04-27T12:00:00.783Z,96419.61
2023-04-27T12:02:29.137Z,96418.47
2023-04-27T12:04:58.259Z,96421.81
2023-04-27T12:07:24.931Z,96420.09
2023-04-27T12:09:51.465Z,96421.66
2023-04-27T12:12:18.662Z,96420.23
2023-04-27T12:14:45.373Z,96418.92
2023-04-27T12:17:12.212Z,96414.07
2023-04-27T12:19:38.828Z,96417.21
2023-04-27T12:22:05.790Z,96418.08
2023-04-27T12:24:32.357Z,96424.13
2023-04-27T12:26:59.060Z,96424.88
2023-04-27T12:29:25.749Z,96424.17
2023-04-27T12:31:52.730Z,96425.48
2023-04-27T12:34:20.243Z,96427.23
2023-04-27T12:36:46.792Z,96433.30
2023-04-27T12:39:13.953Z,96433.38
2023-04-27T12:41:42.700Z,96432.88
2023-04-27T12:44:09.574Z,96430.58
2023-04-27T12:46:36.148Z,96426.85
2023-04-27T12:49:02.812Z,96429.04
2023-04-27T12:51:29.509Z,96433.13
2023-04-27T12:53:56.201Z,96428.25
2023-04-27T12:56:23.586Z,96433.45
2023-04-27T12:58:50.317Z,96430.43
2023-04-27T13:01:17.240Z,96426.73
2023-04-27T13:03:44.174Z,96426.96
2023-04-27T13:06:11.531Z,96424.68
2023-04-27T13:08:38.769Z,96422.88
2023-04-27T13:11:05.413Z,96423.55
2023-04-27T13:13:32.008Z,96426.47
2023-04-27T13:15:58.595Z,96422.98
2023-04-27T13:18:25.680Z,96414.80
2023-04-27T13:20:52.548Z,96407.19
2023-04-27T13:23:19.136Z,96406.48
2023-04-27T13:25:45.710Z,96413.73
2023-04-27T13:28:12.431Z,96413.83
2023-04-27T13:30:39.107Z,96419.86
2023-04-27T13:33:21.197Z,96422.86
2023-04-27T13:35:51.390Z,96424.52
2023-04-27T13:38:17.973Z,96424.54
2023-04-27T13:40:44.740Z,96424.65
2023-04-27T13:43:11.284Z,96429.33
2023-04-27T13:45:39.789Z,96428.67
2023-04-27T13:48:06.563Z,96438.58
2023-04-27T13:50:33.179Z,96438.66
2023-04-27T13:53:01.259Z,96435.50
2023-04-27T13:55:27.933Z,96436.79
2023-04-27T13:57:54.467Z,96430.01
2023-04-27T14:00:21.352Z,96437.14
2023-04-27T14:02:47.971Z,96442.41
2023-04-27T14:05:14.809Z,96446.83
2023-04-27T14:07:41.317Z,96446.09
2023-04-27T14:10:08.351Z,96446.95
2023-04-27T14:12:35.475Z,96446.39
2023-04-27T14:15:02.451Z,96444.95
2023-04-27T14:17:29.008Z,96443.73
2023-04-27T14:19:55.628Z,96444.46
2023-04-27T14:22:22.291Z,96449.29
2023-04-27T14:24:48.977Z,96450.33
2023-04-27T14:27:16.512Z,96449.18
2023-04-27T14:29:43.160Z,96447.10
2023-04-27T14:32:09.721Z,96453.27
2023-04-27T14:34:36.669Z,96459.70
2023-04-27T14:37:03.473Z,96455.21
2023-04-27T14:39:30.181Z,96456.68
2023-04-27T14:41:56.738Z,96454.58
2023-04-27T14:44:23.362Z,96448.19
2023-04-27T14:46:50.149Z,96452.55
2023-04-27T14:49:17.132Z,96455.95
2023-04-27T14:51:44.022Z,96462.01
2023-04-27T14:54:10.734Z,96461.00
2023-04-27T14:56:37.359Z,96468.45
2023-04-27T14:59:04.699Z,96465.95
2023-04-27T15:01:31.264Z,96469.70
2023-04-27T15:03:58.280Z,96471.89
2023-04-27T15:06:28.032Z,96472.19
2023-04-27T15:08:54.934Z,96473.58
2023-04-27T15:11:21.988Z,96472.30
2023-04-27T15:13:48.751Z,96475.92
2023-04-27T15:16:15.425Z,96477.52
2023-04-27T15:18:42.526Z,96478.77
2023-04-27T15:21:09.256Z,96479.76
2023-04-27T15:23:36.760Z,96481.59
2023-04-27T15:26:03.411Z,96479.48
2023-04-27T15:28:32.969Z,96482.73
2023-04-27T15:31:00.120Z,96484.70
2023-04-27T15:33:26.944Z,96479.86
2023-04-27T15:35:53.550Z,96478.83
2023-04-27T15:38:20.459Z,96484.23
2023-04-27T15:40:47.090Z,96477.56
2023-04-27T15:43:14.409Z,96479.56
2023-04-27T15:45:41.330Z,96478.27
2023-04-27T15:48:07.953Z,96482.42
2023-04-27T15:50:34.621Z,96484.98
2023-04-27T15:53:01.202Z,96483.13
2023-04-27T15:55:27.723Z,96485.00
2023-04-27T15:57:54.307Z,96483.16
2023-04-27T16:00:21.844Z,96486.64
2023-04-27T16:02:48.578Z,96482.58
2023-04-27T16:05:16.214Z,96478.63
2023-04-27T16:07:44.483Z,96481.48
2023-04-27T16:10:11.643Z,96480.02
2023-04-27T16:12:38.442Z,96482.88
2023-04-27T16:15:06.914Z,96485.86
2023-04-27T16:17:35.470Z,96487.86
2023-04-27T16:20:05.986Z,96485.53
2023-04-27T16:22:34.132Z,96484.12
2023-04-27T16:25:01.579Z,96486.33
2023-04-27T16:27:28.192Z,96488.77
2023-04-27T16:29:55.906Z,96491.38
2023-04-27T16:32:23.023Z,96489.48
2023-04-27T16:34:50.166Z,96488.67
2023-04-27T16:37:16.729Z,96489.33
2023-04-27T16:39:43.418Z,96487.91
2023-04-27T16:42:10.230Z,96485.16
2023-04-27T16:44:37.762Z,96486.49
2023-04-27T16:47:04.317Z,96487.60
2023-04-27T16:49:30.887Z,96490.27
2023-04-27T16:51:57.725Z,96488.17
2023-04-27T16:54:24.275Z,96489.42
2023-04-27T16:56:51.292Z,96488.52
2023-04-27T16:59:19.021Z,96494.45
2023-04-27T17:01:45.579Z,96495.95
2023-04-27T17:04:12.544Z,96500.02
2023-04-27T17:06:40.571Z,96505.16
2023-04-27T17:09:07.799Z,96508.32
2023-04-27T17:11:34.477Z,96506.02
2023-04-27T17:14:01.178Z,96508.24
2023-04-27T17:16:27.761Z,96508.73
2023-04-27T17:18:55.595Z,96508.35
2023-04-27T17:21:24.508Z,96512.83
2023-04-27T17:23:52.484Z,96515.16
2023-04-27T17:26:39.148Z,96514.83
2023-04-27T17:29:07.189Z,96517.65
2023-04-27T17:31:35.102Z,96519.68
2023-04-27T17:34:03.425Z,96521.50
2023-04-27T17:36:31.638Z,96520.23
2023-04-27T17:39:01.247Z,96523.64
2023-04-27T17:41:29.204Z,96521.81
2023-04-27T17:43:58.304Z,96528.18
2023-04-27T17:46:27.430Z,96527.79
2023-04-27T17:48:55.539Z,96531.36
2023-04-27T17:51:25.162Z,96533.03
2023-04-27T17:53:53.116Z,96536.95
2023-04-27T17:56:21.013Z,96535.48
2023-04-27T17:58:48.918Z,96538.91
2023-04-27T18:01:16.907Z,96536.50
2023-04-27T18:03:45.089Z,96539.85
2023-04-27T18:06:13.210Z,96539.34
2023-04-27T18:08:41.309Z,96540.54
2023-04-27T18:11:09.241Z,96539.55
2023-04-27T18:13:37.901Z,96541.88
2023-04-27T18:16:06.054Z,96542.77
2023-04-27T18:18:34.035Z,96545.02
2023-04-27T18:21:02.021Z,96545.02
2023-04-27T18:23:30.658Z,96548.05
2023-04-27T18:26:00.081Z,96548.14
2023-04-27T18:28:28.026Z,96547.15
2023-04-27T18:30:56.045Z,96547.40
2023-04-27T18:33:24.055Z,96554.38
2023-04-27T18:35:52.062Z,96553.64
2023-04-27T18:38:19.994Z,96558.35
2023-04-27T18:40:47.927Z,96556.76
2023-04-27T18:43:15.986Z,96561.17
2023-04-27T18:45:43.979Z,96562.70
2023-04-27T18:48:11.938Z,96561.02
2023-04-27T18:50:40.202Z,96566.13
2023-04-27T18:53:08.281Z,96566.48
2023-04-27T18:55:36.179Z,96568.39
2023-04-27T18:58:04.031Z,96572.05
2023-04-27T19:00:32.135Z,96571.09
2023-04-27T19:03:00.169Z,96568.66
2023-04-27T19:05:28.293Z,96576.70
2023-04-27T19:07:56.223Z,96574.60
2023-04-27T19:10:24.357Z,96574.89
2023-04-27T19:12:53.243Z,96573.04
2023-04-27T19:15:21.522Z,96572.69
2023-04-27T19:17:58.564Z,96573.50
2023-04-27T19:20:35.575Z,96578.91
2023-04-27T19:23:05.172Z,96581.85
2023-04-27T19:25:33.364Z,96579.77
2023-04-27T19:28:01.399Z,96578.33
2023-04-27T19:30:29.868Z,96580.83
2023-04-27T19:32:57.932Z,96577.42
2023-04-27T19:35:27.562Z,96580.56
2023-04-27T19:37:56.008Z,96581.62
2023-04-27T19:40:26.884Z,96582.27
2023-04-27T19:42:55.143Z,96583.58
2023-04-27T19:45:23.706Z,96582.63
2023-04-27T19:47:51.696Z,96583.52
2023-04-27T19:50:19.969Z,96583.55
2023-04-27T19:52:48.005Z,96580.35
2023-04-27T19:55:16.044Z,96577.09
2023-04-27T19:57:44.783Z,96576.79
2023-04-27T20:00:13.180Z,96583.05
2023-04-27T20:02:41.962Z,96580.63
2023-04-27T20:05:11.580Z,96575.54
2023-04-27T20:07:39.736Z,96580.42
2023-04-27T20:10:07.857Z,96580.92
2023-04-27T20:15:08.138Z,96583.96
2023-04-27T20:17:36.636Z,96589.04
2023-04-27T20:20:10.533Z,96592.74
2023-04-27T20:22:38.924Z,96592.14
2023-04-27T20:25:07.933Z,96592.00
2023-04-27T20:27:36.121Z,96596.71
2023-04-27T20:30:04.551Z,96597.20
2023-04-27T20:32:32.481Z,96598.98
2023-04-27T20:35:02.623Z,96600.70
2023-04-27T20:37:32.195Z,96604.23
2023-04-27T20:40:00.982Z,96603.02
2023-04-27T20:42:29.687Z,96602.52
2023-04-27T20:44:57.760Z,96602.29
2023-04-27T20:47:25.853Z,96604.50
2023-04-27T20:49:53.867Z,96607.00
2023-04-27T20:52:21.961Z,96604.05
2023-04-27T20:54:49.922Z,96604.00
2023-04-27T20:57:17.872Z,96607.19
2023-04-27T20:59:45.857Z,96607.22
2023-04-27T21:02:13.855Z,96605.60
2023-04-27T21:04:43.253Z,96606.54
2023-04-27T21:07:11.510Z,96606.11
2023-04-27T21:09:39.484Z,96606.67
2023-04-27T21:12:07.689Z,96607.92
2023-04-27T21:14:35.956Z,96599.14
2023-04-27T21:17:04.183Z,96602.80
2023-04-27T21:19:32.228Z,96601.81
2023-04-27T21:22:00.173Z,96603.64
2023-04-27T21:24:28.111Z,96603.61
2023-04-27T21:26:56.174Z,96604.09
2023-04-27T21:29:24.246Z,96603.48
2023-04-27T21:31:52.186Z,96600.48
2023-04-27T21:34:20.157Z,96604.64
2023-04-27T21:36:48.067Z,96604.95
2023-04-27T21:39:16.086Z,96606.13
2023-04-27T21:41:44.081Z,96604.04
2023-04-27T21:44:12.045Z,96605.17
2023-04-27T21:46:40.043Z,96605.85
2023-04-27T21:49:08.833Z,96604.35
2023-04-27T21:51:37.104Z,96607.13
2023-04-27T21:54:05.291Z,96604.12
2023-04-27T21:56:42.673Z,96607.89
2023-04-27T21:59:10.860Z,96607.94
2023-04-27T22:01:39.416Z,96609.39
2023-04-27T22:04:07.601Z,96612.80
2023-04-27T22:06:35.905Z,96613.03
2023-04-27T22:09:04.759Z,96614.04
2023-04-27T22:11:34.457Z,96618.48
2023-04-27T22:14:02.356Z,96616.38
2023-04-27T22:16:30.414Z,96616.33
2023-04-27T22:18:59.730Z,96615.36
2023-04-27T22:21:28.888Z,96615.68
2023-04-27T22:23:57.095Z,96616.06
2023-04-27T22:26:25.095Z,96615.21
2023-04-27T22:28:53.329Z,96616.46
2023-04-27T22:31:21.913Z,96615.42
2023-04-27T22:33:49.920Z,96613.05
2023-04-27T22:36:18.024Z,96610.21
2023-04-27T22:38:46.029Z,96610.59
2023-04-27T22:41:13.944Z,96607.88
2023-04-27T22:43:42.037Z,96605.00
2023-04-27T22:46:10.147Z,96606.27
2023-04-27T22:48:38.073Z,96602.70
2023-04-27T22:51:12.491Z,96602.05
2023-04-27T22:53:40.669Z,96600.82
2023-04-27T22:56:08.737Z,96597.34
2023-04-27T22:58:36.777Z,96600.43
2023-04-27T23:01:04.836Z,96600.02
2023-04-27T23:03:32.972Z,96600.92
2023-04-27T23:06:01.050Z,96603.84
2023-04-27T23:08:29.614Z,96603.45
2023-04-27T23:10:57.601Z,96604.15
2023-04-27T23:13:28.479Z,96608.78
2023-04-27T23:15:56.816Z,96610.69
2023-04-27T23:18:24.774Z,96614.43
2023-04-27T23:20:56.838Z,96613.66
2023-04-27T23:23:24.802Z,96612.43
2023-04-27T23:25:52.710Z,96613.10
2023-04-27T23:28:20.922Z,96611.19
2023-04-27T23:30:53.951Z,96612.02
2023-04-27T23:33:22.281Z,96612.99
2023-04-27T23:35:50.337Z,96613.88
2023-04-27T23:38:18.617Z,96612.30
2023-04-27T23:40:46.752Z,96614.17
2023-04-27T23:43:14.676Z,96611.85
2023-04-27T23:45:42.684Z,96613.48
2023-04-27T23:48:10.758Z,96613.59
2023-04-27T23:50:38.717Z,96609.66
2023-04-27T23:53:06.666Z,96605.89
2023-04-27T23:55:35.155Z,96605.63
2023-04-27T23:58:03.802Z,96605.38
